sensor_id;sensor_type;location;lat;lon;timestamp;pressure;altitude;pressure_sealevel;temperature;humidity
37132;BME280;23035;50.032;21.978;2023-05-29T00:03:41;66259.53;;;10.33;100.00
37132;BME280;23035;50.032;21.978;2023-05-29T00:08:46;66281.59;;;10.57;100.00
37132;BME280;23035;50.032;21.978;2023-05-29T00:13:50;66344.34;;;11.16;100.00
37132;BME280;23035;50.032;21.978;2023-05-29T00:18:54;66367.34;;;11.36;100.00
37132;BME280;23035;50.032;21.978;2023-05-29T00:24:00;66395.34;;;11.65;100.00
37132;BME280;23035;50.032;21.978;2023-05-29T00:29:04;66351.81;;;11.21;100.00
37132;BME280;23035;50.032;21.978;2023-05-29T00:34:08;66283.19;;;10.58;100.00
37132;BME280;23035;50.032;21.978;2023-05-29T00:39:13;66357.06;;;11.24;100.00
37132;BME280;23035;50.032;21.978;2023-05-29T00:44:17;66368.88;;;11.35;100.00
37132;BME280;23035;50.032;21.978;2023-05-29T00:49:22;66242.44;;;10.20;100.00
37132;BME280;23035;50.032;21.978;2023-05-29T00:54:29;66326.13;;;10.99;100.00
37132;BME280;23035;50.032;21.978;2023-05-29T00:59:33;66263.81;;;10.38;100.00
37132;BME280;23035;50.032;21.978;2023-05-29T01:04:38;66308.78;;;10.78;100.00
37132;BME280;23035;50.032;21.978;2023-05-29T01:09:43;66161.31;;;9.38;100.00
37132;BME280;23035;50.032;21.978;2023-05-29T01:15:00;66143.19;;;9.23;100.00
37132;BME280;23035;50.032;21.978;2023-05-29T01:20:18;66217.06;;;9.91;100.00
37132;BME280;23035;50.032;21.978;2023-05-29T01:25:32;66266.94;;;10.38;100.00
37132;BME280;23035;50.032;21.978;2023-05-29T01:30:40;66280.88;;;10.51;100.00
37132;BME280;23035;50.032;21.978;2023-05-29T01:35:45;66318.44;;;10.87;100.00
37132;BME280;23035;50.032;21.978;2023-05-29T01:40:50;66289.47;;;10.59;100.00
37132;BME280;23035;50.032;21.978;2023-05-29T01:45:57;66266.59;;;10.43;100.00
37132;BME280;23035;50.032;21.978;2023-05-29T01:51:01;66240.75;;;10.16;100.00
37132;BME280;23035;50.032;21.978;2023-05-29T01:56:06;66253.53;;;10.25;100.00
37132;BME280;23035;50.032;21.978;2023-05-29T02:01:11;66184.97;;;9.63;100.00
37132;BME280;23035;50.032;21.978;2023-05-29T02:06:16;66178.03;;;9.56;100.00
37132;BME280;23035;50.032;21.978;2023-05-29T02:11:20;66219.28;;;9.95;100.00
37132;BME280;23035;50.032;21.978;2023-05-29T02:16:26;66248.81;;;10.23;100.00
37132;BME280;23035;50.032;21.978;2023-05-29T02:21:31;66235.38;;;10.11;100.00
37132;BME280;23035;50.032;21.978;2023-05-29T02:26:35;66252.56;;;10.27;100.00
37132;BME280;23035;50.032;21.978;2023-05-29T02:31:41;66282.59;;;10.55;100.00
37132;BME280;23035;50.032;21.978;2023-05-29T02:36:46;66257.38;;;10.31;100.00
37132;BME280;23035;50.032;21.978;2023-05-29T02:41:52;66204.38;;;9.84;100.00
37132;BME280;23035;50.032;21.978;2023-05-29T02:46:57;66193.56;;;9.71;100.00
37132;BME280;23035;50.032;21.978;2023-05-29T02:52:02;66226.25;;;10.02;100.00
37132;BME280;23035;50.032;21.978;2023-05-29T02:57:06;66269.09;;;10.40;100.00
37132;BME280;23035;50.032;21.978;2023-05-29T03:02:13;66205.34;;;9.82;100.00
37132;BME280;23035;50.032;21.978;2023-05-29T03:07:17;66291.19;;;10.63;100.00
37132;BME280;23035;50.032;21.978;2023-05-29T03:12:21;66338.38;;;11.08;100.00
37132;BME280;23035;50.032;21.978;2023-05-29T03:17:26;66325.03;;;10.98;100.00
37132;BME280;23035;50.032;21.978;2023-05-29T03:22:31;66379.06;;;11.44;100.00
37132;BME280;23035;50.032;21.978;2023-05-29T03:27:35;66465.06;;;12.28;100.00
37132;BME280;23035;50.032;21.978;2023-05-29T03:32:46;66311.56;;;10.83;100.00
37132;BME280;23035;50.032;21.978;2023-05-29T03:37:50;66355.00;;;11.24;100.00
37132;BME280;23035;50.032;21.978;2023-05-29T03:42:54;66402.16;;;11.66;100.00
37132;BME280;23035;50.032;21.978;2023-05-29T03:47:59;66449.59;;;12.16;100.00
37132;BME280;23035;50.032;21.978;2023-05-29T03:53:04;66470.00;;;12.35;100.00
37132;BME280;23035;50.032;21.978;2023-05-29T03:58:08;66464.53;;;12.28;100.00
37132;BME280;23035;50.032;21.978;2023-05-29T04:03:16;66509.66;;;12.71;100.00
37132;BME280;23035;50.032;21.978;2023-05-29T04:08:21;66561.44;;;13.25;100.00
37132;BME280;23035;50.032;21.978;2023-05-29T04:13:25;66545.06;;;13.02;100.00
37132;BME280;23035;50.032;21.978;2023-05-29T04:18:30;66527.31;;;12.85;100.00
37132;BME280;23035;50.032;21.978;2023-05-29T04:23:35;66560.34;;;13.24;100.00
37132;BME280;23035;50.032;21.978;2023-05-29T04:28:39;66636.00;;;13.90;100.00
37132;BME280;23035;50.032;21.978;2023-05-29T04:33:47;66668.88;;;14.24;100.00
37132;BME280;23035;50.032;21.978;2023-05-29T04:38:54;66605.50;;;13.66;100.00
37132;BME280;23035;50.032;21.978;2023-05-29T04:43:58;66613.50;;;13.71;100.00
37132;BME280;23035;50.032;21.978;2023-05-29T04:49:11;66704.41;;;14.57;100.00
37132;BME280;23035;50.032;21.978;2023-05-29T04:54:16;66705.47;;;14.58;100.00
37132;BME280;23035;50.032;21.978;2023-05-29T04:59:26;66681.78;;;14.36;100.00
37132;BME280;23035;50.032;21.978;2023-05-29T05:04:32;66734.97;;;14.84;100.00
37132;BME280;23035;50.032;21.978;2023-05-29T05:09:36;66702.25;;;14.55;100.00
37132;BME280;23035;50.032;21.978;2023-05-29T05:14:41;66814.66;;;15.59;98.18
37132;BME280;23035;50.032;21.978;2023-05-29T05:19:47;66843.81;;;15.89;95.63
37132;BME280;23035;50.032;21.978;2023-05-29T05:24:52;66962.28;;;16.99;86.25
37132;BME280;23035;50.032;21.978;2023-05-29T05:30:01;66916.47;;;16.55;91.88
37132;BME280;23035;50.032;21.978;2023-05-29T05:35:07;66884.69;;;16.25;93.32
37132;BME280;23035;50.032;21.978;2023-05-29T05:40:14;66796.81;;;15.40;98.60
37132;BME280;23035;50.032;21.978;2023-05-29T05:45:26;66919.22;;;16.60;87.88
37132;BME280;23035;50.032;21.978;2023-05-29T05:50:32;66949.28;;;16.84;88.42
37132;BME280;23035;50.032;21.978;2023-05-29T05:55:37;67042.22;;;17.79;83.78
37132;BME280;23035;50.032;21.978;2023-05-29T06:00:41;67012.91;;;17.44;86.14
37132;BME280;23035;50.032;21.978;2023-05-29T06:05:47;67072.38;;;18.05;80.58
37132;BME280;23035;50.032;21.978;2023-05-29T06:10:53;67150.06;;;18.78;76.38
37132;BME280;23035;50.032;21.978;2023-05-29T06:15:57;67346.00;;;20.58;64.55
37132;BME280;23035;50.032;21.978;2023-05-29T06:21:03;67315.13;;;20.26;68.29
37132;BME280;23035;50.032;21.978;2023-05-29T06:26:10;67252.00;;;19.69;69.86
37132;BME280;23035;50.032;21.978;2023-05-29T06:31:15;67233.28;;;19.59;71.15
37132;BME280;23035;50.032;21.978;2023-05-29T06:36:21;67243.94;;;19.64;68.97
37132;BME280;23035;50.032;21.978;2023-05-29T06:41:26;67265.53;;;19.85;68.16
37132;BME280;23035;50.032;21.978;2023-05-29T06:46:30;67217.47;;;19.39;73.35
37132;BME280;23035;50.032;21.978;2023-05-29T06:51:38;67235.31;;;19.56;70.73
37132;BME280;23035;50.032;21.978;2023-05-29T06:56:42;67232.03;;;19.53;73.37
37132;BME280;23035;50.032;21.978;2023-05-29T07:01:52;67226.13;;;19.47;72.28
37132;BME280;23035;50.032;21.978;2023-05-29T07:06:58;67194.88;;;19.20;74.93
37132;BME280;23035;50.032;21.978;2023-05-29T07:12:02;67218.00;;;19.40;74.20
37132;BME280;23035;50.032;21.978;2023-05-29T07:17:07;67215.25;;;19.35;73.43
37132;BME280;23035;50.032;21.978;2023-05-29T07:22:13;67248.34;;;19.71;73.79
37132;BME280;23035;50.032;21.978;2023-05-29T07:27:17;67281.69;;;19.97;71.03
37132;BME280;23035;50.032;21.978;2023-05-29T07:32:22;67254.13;;;19.71;70.93
37132;BME280;23035;50.032;21.978;2023-05-29T07:37:28;67301.78;;;20.21;70.46
37132;BME280;23035;50.032;21.978;2023-05-29T07:42:34;67361.78;;;20.78;69.31
37132;BME280;23035;50.032;21.978;2023-05-29T07:47:39;67431.59;;;21.46;59.62
37132;BME280;23035;50.032;21.978;2023-05-29T07:52:46;67399.56;;;21.11;62.62
37132;BME280;23035;50.032;21.978;2023-05-29T07:57:50;67420.72;;;21.33;61.50
37132;BME280;23035;50.032;21.978;2023-05-29T08:02:55;67397.41;;;21.09;63.24
37132;BME280;23035;50.032;21.978;2023-05-29T08:08:07;67488.78;;;21.95;62.13
37132;BME280;23035;50.032;21.978;2023-05-29T08:13:11;67496.28;;;21.99;61.16
37132;BME280;23035;50.032;21.978;2023-05-29T08:18:19;67501.34;;;22.12;59.18
37132;BME280;23035;50.032;21.978;2023-05-29T08:23:24;67400.03;;;21.09;58.70
37132;BME280;23035;50.032;21.978;2023-05-29T08:28:28;67394.16;;;21.06;60.48
37132;BME280;23035;50.032;21.978;2023-05-29T08:33:32;67452.69;;;21.66;60.62
37132;BME280;23035;50.032;21.978;2023-05-29T08:38:37;67436.25;;;21.43;57.21
37132;BME280;23035;50.032;21.978;2023-05-29T08:43:41;67482.84;;;21.89;56.54
37132;BME280;23035;50.032;21.978;2023-05-29T08:48:48;67549.41;;;22.52;55.18
37132;BME280;23035;50.032;21.978;2023-05-29T08:53:56;67576.44;;;22.77;55.03
37132;BME280;23035;50.032;21.978;2023-05-29T08:59:00;67602.50;;;23.04;53.59
37132;BME280;23035;50.032;21.978;2023-05-29T09:04:08;67598.69;;;23.01;54.71
37132;BME280;23035;50.032;21.978;2023-05-29T09:09:15;67601.97;;;23.04;54.49
37132;BME280;23035;50.032;21.978;2023-05-29T09:14:32;67668.50;;;23.64;51.56
37132;BME280;23035;50.032;21.978;2023-05-29T09:19:38;67647.94;;;23.47;53.68
37132;BME280;23035;50.032;21.978;2023-05-29T09:24:46;67633.22;;;23.28;54.07
37132;BME280;23035;50.032;21.978;2023-05-29T09:29:53;67626.91;;;23.30;52.19
37132;BME280;23035;50.032;21.978;2023-05-29T09:35:00;67614.94;;;23.16;53.47
37132;BME280;23035;50.032;21.978;2023-05-29T09:40:07;67600.25;;;23.00;52.79
37132;BME280;23035;50.032;21.978;2023-05-29T09:45:12;67645.13;;;23.39;54.28
37132;BME280;23035;50.032;21.978;2023-05-29T09:50:18;67696.59;;;23.88;52.81
37132;BME280;23035;50.032;21.978;2023-05-29T09:55:27;67764.38;;;24.54;49.79
37132;BME280;23035;50.032;21.978;2023-05-29T10:00:31;67789.78;;;24.75;49.13
37132;BME280;23035;50.032;21.978;2023-05-29T10:05:37;67689.03;;;23.81;48.00
37132;BME280;23035;50.032;21.978;2023-05-29T10:10:44;67717.78;;;24.10;46.14
37132;BME280;23035;50.032;21.978;2023-05-29T10:15:51;67777.38;;;24.66;48.54
37132;BME280;23035;50.032;21.978;2023-05-29T10:20:58;67789.28;;;24.77;45.54
37132;BME280;23035;50.032;21.978;2023-05-29T10:26:09;67728.66;;;24.23;43.91
37132;BME280;23035;50.032;21.978;2023-05-29T10:31:22;67805.06;;;24.95;46.09
37132;BME280;23035;50.032;21.978;2023-05-29T10:36:30;67787.72;;;24.78;44.41
37132;BME280;23035;50.032;21.978;2023-05-29T10:41:39;67816.88;;;25.01;45.10
37132;BME280;23035;50.032;21.978;2023-05-29T10:47:05;67709.59;;;24.00;46.73
37132;BME280;23035;50.032;21.978;2023-05-29T10:52:11;67792.50;;;24.78;47.55
37132;BME280;23035;50.032;21.978;2023-05-29T10:57:23;67860.84;;;25.44;43.48
37132;BME280;23035;50.032;21.978;2023-05-29T11:02:31;67803.44;;;24.93;41.88
37132;BME280;23035;50.032;21.978;2023-05-29T11:07:50;67754.19;;;24.49;41.64
37132;BME280;23035;50.032;21.978;2023-05-29T11:12:58;67901.03;;;25.85;40.28
37132;BME280;23035;50.032;21.978;2023-05-29T11:18:06;68056.66;;;27.26;38.85
37132;BME280;23035;50.032;21.978;2023-05-29T11:23:15;68300.09;;;29.59;35.76
37132;BME280;23035;50.032;21.978;2023-05-29T11:28:21;68403.41;;;30.55;33.59
37132;BME280;23035;50.032;21.978;2023-05-29T11:33:27;68278.31;;;29.36;33.42
37132;BME280;23035;50.032;21.978;2023-05-29T11:38:31;68169.66;;;28.34;35.36
37132;BME280;23035;50.032;21.978;2023-05-29T11:43:37;68470.25;;;31.16;32.08
37132;BME280;23035;50.032;21.978;2023-05-29T11:48:45;68520.91;;;31.65;30.30
37132;BME280;23035;50.032;21.978;2023-05-29T11:53:51;68643.94;;;32.80;29.59
37132;BME280;23035;50.032;21.978;2023-05-29T11:59:01;68395.81;;;30.48;32.01
37132;BME280;23035;50.032;21.978;2023-05-29T12:04:14;68440.38;;;30.88;31.26
37132;BME280;23035;50.032;21.978;2023-05-29T12:09:26;68226.13;;;28.87;34.04
37132;BME280;23035;50.032;21.978;2023-05-29T12:14:32;68081.13;;;27.51;36.63
37132;BME280;23035;50.032;21.978;2023-05-29T12:19:37;67956.78;;;26.32;39.16
37132;BME280;23035;50.032;21.978;2023-05-29T12:24:41;67879.31;;;25.64;39.64
37132;BME280;23035;50.032;21.978;2023-05-29T12:29:47;67773.03;;;24.62;42.86
37132;BME280;23035;50.032;21.978;2023-05-29T12:34:51;68076.28;;;27.49;38.35
37132;BME280;23035;50.032;21.978;2023-05-29T12:40:16;68083.88;;;27.56;36.76
37132;BME280;23035;50.032;21.978;2023-05-29T12:45:24;67882.53;;;25.65;38.40
37132;BME280;23035;50.032;21.978;2023-05-29T12:50:30;67978.00;;;26.54;38.04
37132;BME280;23035;50.032;21.978;2023-05-29T12:55:36;68190.34;;;28.56;34.76
37132;BME280;23035;50.032;21.978;2023-05-29T13:00:44;68315.91;;;29.76;32.20
37132;BME280;23035;50.032;21.978;2023-05-29T13:05:48;68493.16;;;31.37;30.46
37132;BME280;23035;50.032;21.978;2023-05-29T13:10:53;68551.38;;;31.91;29.26
37132;BME280;23035;50.032;21.978;2023-05-29T13:15:58;68577.50;;;32.16;29.04
37132;BME280;23035;50.032;21.978;2023-05-29T13:21:03;68607.50;;;32.46;28.63
37132;BME280;23035;50.032;21.978;2023-05-29T13:26:08;68404.00;;;30.59;29.44
37132;BME280;23035;50.032;21.978;2023-05-29T13:31:14;68290.31;;;29.50;31.45
37132;BME280;23035;50.032;21.978;2023-05-29T13:36:18;68348.44;;;30.02;30.99
37132;BME280;23035;50.032;21.978;2023-05-29T13:41:22;68353.31;;;30.06;30.62
37132;BME280;23035;50.032;21.978;2023-05-29T13:46:27;68463.78;;;31.12;29.60
37132;BME280;23035;50.032;21.978;2023-05-29T13:51:32;68410.47;;;30.62;29.60
37132;BME280;23035;50.032;21.978;2023-05-29T13:56:36;68416.47;;;30.68;29.35
37132;BME280;23035;50.032;21.978;2023-05-29T14:01:42;68440.41;;;30.90;29.71
37132;BME280;23035;50.032;21.978;2023-05-29T14:06:46;68508.44;;;31.56;29.46
37132;BME280;23035;50.032;21.978;2023-05-29T14:11:50;68363.25;;;30.23;31.23
37132;BME280;23035;50.032;21.978;2023-05-29T14:16:55;68326.78;;;29.86;31.51
37132;BME280;23035;50.032;21.978;2023-05-29T14:22:00;68357.22;;;30.15;30.52
37132;BME280;23035;50.032;21.978;2023-05-29T14:27:05;68356.69;;;30.14;29.91
37132;BME280;23035;50.032;21.978;2023-05-29T14:32:11;68324.50;;;29.79;32.12
37132;BME280;23035;50.032;21.978;2023-05-29T14:37:17;68271.75;;;29.27;31.72
37132;BME280;23035;50.032;21.978;2023-05-29T14:42:20;68252.78;;;29.12;32.03
37132;BME280;23035;50.032;21.978;2023-05-29T14:47:26;68234.34;;;28.97;32.10
37132;BME280;23035;50.032;21.978;2023-05-29T14:52:31;68284.38;;;29.47;32.06
37132;BME280;23035;50.032;21.978;2023-05-29T14:57:35;68297.91;;;29.54;31.09
37132;BME280;23035;50.032;21.978;2023-05-29T15:02:40;68258.78;;;29.20;32.38
37132;BME280;23035;50.032;21.978;2023-05-29T15:07:45;68125.16;;;27.95;31.85
37132;BME280;23035;50.032;21.978;2023-05-29T15:12:49;68134.38;;;28.04;33.04
37132;BME280;23035;50.032;21.978;2023-05-29T15:18:00;68164.22;;;28.29;30.98
37132;BME280;23035;50.032;21.978;2023-05-29T15:23:04;68233.84;;;28.99;31.20
37132;BME280;23035;50.032;21.978;2023-05-29T15:28:09;68320.09;;;29.70;31.09
37132;BME280;23035;50.032;21.978;2023-05-29T15:33:17;68206.63;;;28.71;31.67
37132;BME280;23035;50.032;21.978;2023-05-29T15:38:21;68177.81;;;28.42;32.04
37132;BME280;23035;50.032;21.978;2023-05-29T15:43:25;68219.66;;;28.83;31.66
37132;BME280;23035;50.032;21.978;2023-05-29T15:48:31;68006.22;;;26.81;34.02
37132;BME280;23035;50.032;21.978;2023-05-29T15:53:35;67972.59;;;26.49;36.72
37132;BME280;23035;50.032;21.978;2023-05-29T15:58:39;67912.31;;;25.90;36.76
37132;BME280;23035;50.032;21.978;2023-05-29T16:03:45;67836.47;;;25.22;37.28
37132;BME280;23035;50.032;21.978;2023-05-29T16:08:49;67735.63;;;24.27;40.07
37132;BME280;23035;50.032;21.978;2023-05-29T16:13:53;67724.88;;;24.19;39.12
37132;BME280;23035;50.032;21.978;2023-05-29T16:18:59;67735.72;;;24.29;40.22
37132;BME280;23035;50.032;21.978;2023-05-29T16:24:04;67767.63;;;24.57;41.31
37132;BME280;23035;50.032;21.978;2023-05-29T16:29:08;67789.78;;;24.75;39.19
37132;BME280;23035;50.032;21.978;2023-05-29T16:34:15;67760.03;;;24.50;39.19
37132;BME280;23035;50.032;21.978;2023-05-29T16:39:20;67760.59;;;24.50;40.35
37132;BME280;23035;50.032;21.978;2023-05-29T16:44:26;67697.13;;;23.88;39.89
37132;BME280;23035;50.032;21.978;2023-05-29T16:49:32;67589.56;;;22.95;41.77
37132;BME280;23035;50.032;21.978;2023-05-29T16:54:36;67634.97;;;23.35;43.16
37132;BME280;23035;50.032;21.978;2023-05-29T16:59:42;67645.78;;;23.45;42.22
37132;BME280;23035;50.032;21.978;2023-05-29T17:04:48;67631.06;;;23.26;43.07
37132;BME280;23035;50.032;21.978;2023-05-29T17:10:00;67620.28;;;23.18;44.65
37132;BME280;23035;50.032;21.978;2023-05-29T17:15:06;67638.69;;;23.36;45.53
37132;BME280;23035;50.032;21.978;2023-05-29T17:20:12;67564.59;;;22.69;45.14
37132;BME280;23035;50.032;21.978;2023-05-29T17:25:18;67569.41;;;22.71;45.83
37132;BME280;23035;50.032;21.978;2023-05-29T17:30:22;67575.84;;;22.74;46.80
37132;BME280;23035;50.032;21.978;2023-05-29T17:35:28;67520.22;;;22.27;49.91
37132;BME280;23035;50.032;21.978;2023-05-29T17:40:32;67512.56;;;22.15;51.58
37132;BME280;23035;50.032;21.978;2023-05-29T17:45:37;67494.72;;;22.00;51.74
37132;BME280;23035;50.032;21.978;2023-05-29T17:50:44;67429.84;;;21.39;53.82
37132;BME280;23035;50.032;21.978;2023-05-29T17:55:49;67386.59;;;20.99;56.21
37132;BME280;23035;50.032;21.978;2023-05-29T18:00:55;67366.00;;;20.77;57.35
37132;BME280;23035;50.032;21.978;2023-05-29T18:06:01;67342.19;;;20.54;58.32
37132;BME280;23035;50.032;21.978;2023-05-29T18:11:05;67318.47;;;20.34;58.75
37132;BME280;23035;50.032;21.978;2023-05-29T18:16:09;67309.16;;;20.21;60.94
37132;BME280;23035;50.032;21.978;2023-05-29T18:21:15;67294.59;;;20.07;62.12
37132;BME280;23035;50.032;21.978;2023-05-29T18:26:19;67278.38;;;19.92;63.09
37132;BME280;23035;50.032;21.978;2023-05-29T18:31:24;67265.97;;;19.80;63.61
37132;BME280;23035;50.032;21.978;2023-05-29T18:36:30;67223.94;;;19.45;64.84
37132;BME280;23035;50.032;21.978;2023-05-29T18:41:34;67228.22;;;19.47;64.85
37132;BME280;23035;50.032;21.978;2023-05-29T18:46:38;67214.22;;;19.36;66.30
37132;BME280;23035;50.032;21.978;2023-05-29T18:51:44;67190.41;;;19.11;67.12
37132;BME280;23035;50.032;21.978;2023-05-29T18:56:48;67155.41;;;18.81;69.61
37132;BME280;23035;50.032;21.978;2023-05-29T19:01:52;67154.78;;;18.78;70.09
37132;BME280;23035;50.032;21.978;2023-05-29T19:06:58;67155.34;;;18.78;70.53
37132;BME280;23035;50.032;21.978;2023-05-29T19:12:02;67155.41;;;18.81;71.91
37132;BME280;23035;50.032;21.978;2023-05-29T19:17:06;67159.13;;;18.82;73.58
37132;BME280;23035;50.032;21.978;2023-05-29T19:22:13;67143.00;;;18.69;73.22
37132;BME280;23035;50.032;21.978;2023-05-29T19:27:17;67094.94;;;18.24;74.44
37132;BME280;23035;50.032;21.978;2023-05-29T19:32:22;67132.19;;;18.59;78.28
37132;BME280;23035;50.032;21.978;2023-05-29T19:37:28;67092.19;;;18.19;78.34
37132;BME280;23035;50.032;21.978;2023-05-29T19:42:32;67032.44;;;17.67;81.55
37132;BME280;23035;50.032;21.978;2023-05-29T19:47:36;67014.72;;;17.53;82.03
37132;BME280;23035;50.032;21.978;2023-05-29T19:52:42;67035.00;;;17.65;81.27
37132;BME280;23035;50.032;21.978;2023-05-29T19:57:46;67042.09;;;17.74;82.35
37132;BME280;23035;50.032;21.978;2023-05-29T20:02:50;67055.03;;;17.86;83.40
37132;BME280;23035;50.032;21.978;2023-05-29T20:07:56;67069.06;;;17.99;80.60
37132;BME280;23035;50.032;21.978;2023-05-29T20:13:01;67094.47;;;18.26;79.57
37132;BME280;23035;50.032;21.978;2023-05-29T20:18:05;67107.34;;;18.35;78.78
37132;BME280;23035;50.032;21.978;2023-05-29T20:23:11;67132.63;;;18.57;84.23
37132;BME280;23035;50.032;21.978;2023-05-29T20:28:15;67077.09;;;18.04;87.49
37132;BME280;23035;50.032;21.978;2023-05-29T20:33:19;67099.34;;;18.30;86.67
37132;BME280;23035;50.032;21.978;2023-05-29T20:38:25;67030.69;;;17.61;89.31
37132;BME280;23035;50.032;21.978;2023-05-29T20:43:29;66979.53;;;17.15;91.64
37132;BME280;23035;50.032;21.978;2023-05-29T20:48:38;66939.13;;;16.77;93.74
37132;BME280;23035;50.032;21.978;2023-05-29T20:53:44;66936.97;;;16.75;89.28
37132;BME280;23035;50.032;21.978;2023-05-29T20:58:49;66949.81;;;16.84;92.17
37132;BME280;23035;50.032;21.978;2023-05-29T21:03:53;66975.22;;;17.11;91.59
37132;BME280;23035;50.032;21.978;2023-05-29T21:08:59;66905.22;;;16.47;97.64
37132;BME280;23035;50.032;21.978;2023-05-29T21:14:03;66837.28;;;15.81;100.00
37132;BME280;23035;50.032;21.978;2023-05-29T21:19:07;66821.13;;;15.65;100.00
37132;BME280;23035;50.032;21.978;2023-05-29T21:24:13;66866.84;;;16.06;100.00
37132;BME280;23035;50.032;21.978;2023-05-29T21:29:17;66831.81;;;15.73;100.00
37132;BME280;23035;50.032;21.978;2023-05-29T21:34:21;66858.81;;;16.01;100.00
37132;BME280;23035;50.032;21.978;2023-05-29T21:39:28;66808.66;;;15.51;100.00
37132;BME280;23035;50.032;21.978;2023-05-29T21:44:32;66758.03;;;15.03;100.00
37132;BME280;23035;50.032;21.978;2023-05-29T21:49:36;66725.84;;;14.75;100.00
37132;BME280;23035;50.032;21.978;2023-05-29T21:54:41;66708.69;;;14.61;100.00
37132;BME280;23035;50.032;21.978;2023-05-29T21:59:45;66723.00;;;14.68;100.00
37132;BME280;23035;50.032;21.978;2023-05-29T22:04:50;66656.44;;;14.10;100.00
37132;BME280;23035;50.032;21.978;2023-05-29T22:09:55;66628.00;;;13.85;100.00
37132;BME280;23035;50.032;21.978;2023-05-29T22:14:59;66636.00;;;13.90;100.00
37132;BME280;23035;50.032;21.978;2023-05-29T22:20:04;66562.97;;;13.24;100.00
37132;BME280;23035;50.032;21.978;2023-05-29T22:25:11;66529.09;;;12.91;100.00
37132;BME280;23035;50.032;21.978;2023-05-29T22:30:20;66562.25;;;13.18;100.00
37132;BME280;23035;50.032;21.978;2023-05-29T22:35:25;66597.81;;;13.54;100.00
37132;BME280;23035;50.032;21.978;2023-05-29T22:40:30;66617.09;;;13.70;100.00
37132;BME280;23035;50.032;21.978;2023-05-29T22:45:34;66661.25;;;14.14;100.00
37132;BME280;23035;50.032;21.978;2023-05-29T22:50:39;66612.34;;;13.68;100.00
37132;BME280;23035;50.032;21.978;2023-05-29T22:55:45;66654.28;;;14.07;100.00
37132;BME280;23035;50.032;21.978;2023-05-29T23:00:50;66716.63;;;14.64;100.00
37132;BME280;23035;50.032;21.978;2023-05-29T23:05:56;66666.13;;;14.19;100.00
37132;BME280;23035;50.032;21.978;2023-05-29T23:11:02;66683.88;;;14.35;100.00
37132;BME280;23035;50.032;21.978;2023-05-29T23:16:06;66615.56;;;13.71;100.00
37132;BME280;23035;50.032;21.978;2023-05-29T23:21:14;66526.78;;;12.84;100.00
37132;BME280;23035;50.032;21.978;2023-05-29T23:26:19;66575.09;;;13.28;100.00
37132;BME280;23035;50.032;21.978;2023-05-29T23:31:24;66567.19;;;13.25;100.00
37132;BME280;23035;50.032;21.978;2023-05-29T23:36:29;66586.53;;;13.43;100.00
37132;BME280;23035;50.032;21.978;2023-05-29T23:41:35;66473.06;;;12.33;100.00
37132;BME280;23035;50.032;21.978;2023-05-29T23:46:39;66478.97;;;12.39;100.00
37132;BME280;23035;50.032;21.978;2023-05-29T23:51:43;66553.19;;;13.12;100.00
37132;BME280;23035;50.032;21.978;2023-05-29T23:56:49;66605.28;;;13.59;100.00
